MUP weather

CLOSED [Duplicate] Mulga Park Airport
Mulga Park, Northern Territory, Australia

Public forecast

Using degrees Celsius for public forecast. Weather courtesy of forecast.io.

METAR (pilot weather report)

Closest report is Ayers Rock Connellan Airport, 54.5 nm (100.9 km) NW. Retrieved 2019/03/21 01:00 UTC (16 minutes ago):

YAYE 210100Z AUTO 06015KT 9999 // NCD 35/06 Q1014

TAF (pilot weather forecast)

Forecast is more than 12 hours old.

Closest forecast is Alice Springs Airport, 173.9 nm (322.1 km) NE. Retrieved 2019/03/20 00:00 UTC (1 day ago):

TAF YBAS 202304Z 2100/2124 12014KT CAVOK FM210900 12005KT CAVOK FM211500 30005KT CAVOK FM212300 09010KT CAVOK